createdAt,value
2018-09-05T00:02:21.559Z,101044.23
2018-09-05T00:04:50.154Z,101045.17
2018-09-05T00:07:18.836Z,101048.28
2018-09-05T00:09:47.245Z,101051.48
2018-09-05T00:12:15.777Z,101051.09
2018-09-05T00:14:44.988Z,101050.36
2018-09-05T00:17:13.525Z,101042.45
2018-09-05T00:19:42.120Z,101035.52
2018-09-05T00:22:10.545Z,101038.33
2018-09-05T00:24:39.376Z,101034.83
2018-09-05T00:27:07.917Z,101034.92
2018-09-05T00:29:36.498Z,101031.93
2018-09-05T00:32:05.188Z,101032.38
2018-09-05T00:34:33.628Z,101029.43
2018-09-05T00:37:08.689Z,101028.16
2018-09-05T00:39:37.324Z,101028.70
2018-09-05T00:42:05.914Z,101022.61
2018-09-05T00:44:35.198Z,101026.26
2018-09-05T00:47:03.692Z,101020.62
2018-09-05T00:49:32.132Z,101022.88
2018-09-05T00:52:00.776Z,101016.34
2018-09-05T00:54:29.335Z,101019.05
2018-09-05T00:56:58.006Z,101018.66
2018-09-05T00:59:26.476Z,101014.73
2018-09-05T01:01:55.268Z,101018.33
2018-09-05T01:04:23.948Z,101018.87
2018-09-05T01:06:53.084Z,101018.47
2018-09-05T01:09:21.720Z,101015.58
2018-09-05T01:11:50.888Z,101021.73
2018-09-05T01:14:19.457Z,101018.73
2018-09-05T01:16:47.959Z,101018.83
2018-09-05T01:19:23.160Z,101016.17
2018-09-05T01:21:52.501Z,101024.98
2018-09-05T01:24:20.967Z,101010.53
2018-09-05T01:26:49.558Z,101017.56
2018-09-05T01:29:19.408Z,101015.84
2018-09-05T01:31:48.705Z,101013.58
2018-09-05T01:34:17.222Z,101014.85
2018-09-05T01:36:45.688Z,101010.53
2018-09-05T01:39:14.814Z,101013.04
2018-09-05T01:41:43.232Z,101010.88
2018-09-05T01:44:11.817Z,101007.28
2018-09-05T01:46:40.908Z,101012.11
2018-09-05T01:49:09.686Z,101009.00
2018-09-05T01:51:38.151Z,101013.37
2018-09-05T01:54:07.014Z,101011.60
2018-09-05T01:56:35.450Z,101009.79
2018-09-05T01:59:03.883Z,101008.47
2018-09-05T02:01:32.375Z,101018.14
2018-09-05T02:04:00.894Z,101017.36
2018-09-05T02:06:29.729Z,101007.23
2018-09-05T02:08:58.266Z,101015.09
2018-09-05T02:11:26.925Z,101022.66
2018-09-05T02:13:55.820Z,101009.45
2018-09-05T02:16:24.917Z,101012.53
2018-09-05T02:18:53.522Z,101012.53
2018-09-05T02:21:22.146Z,101011.20
2018-09-05T02:23:51.673Z,101016.96
2018-09-05T02:26:20.709Z,101020.06
2018-09-05T02:28:49.328Z,101019.22
2018-09-05T02:31:18.341Z,101022.33
2018-09-05T02:33:46.878Z,101020.16
2018-09-05T02:36:15.369Z,101016.63
2018-09-05T02:38:44.008Z,101011.86
2018-09-05T02:41:12.668Z,101015.84
2018-09-05T02:43:46.950Z,101011.02
2018-09-05T02:46:15.594Z,101012.74
2018-09-05T02:48:44.201Z,101013.25
2018-09-05T02:51:13.236Z,101013.73
2018-09-05T02:53:41.753Z,101010.59
2018-09-05T02:56:10.472Z,101008.88
2018-09-05T02:58:39.506Z,101004.50
2018-09-05T03:01:08.179Z,101006.22
2018-09-05T03:03:36.644Z,101006.31
2018-09-05T03:06:05.330Z,101008.09
2018-09-05T03:08:33.868Z,101006.31
2018-09-05T03:11:02.380Z,100998.41
2018-09-05T03:13:31.537Z,101003.27
2018-09-05T03:16:00.437Z,101000.62
2018-09-05T03:18:28.936Z,101000.62
2018-09-05T03:20:57.540Z,100995.38
2018-09-05T03:23:27.211Z,100993.11
2018-09-05T03:25:55.973Z,100997.09
2018-09-05T03:28:25.163Z,101009.02
2018-09-05T03:30:53.639Z,101002.00
2018-09-05T03:33:22.113Z,101004.11
2018-09-05T03:35:50.611Z,100998.02
2018-09-05T03:38:19.102Z,101004.26
2018-09-05T03:40:47.682Z,100998.08
2018-09-05T03:43:16.294Z,101002.55
2018-09-05T03:45:44.859Z,101005.20
2018-09-05T03:48:13.373Z,101006.52
2018-09-05T03:50:42.217Z,101006.03
2018-09-05T03:53:10.753Z,101003.38
2018-09-05T03:55:39.246Z,101005.59
2018-09-05T03:58:08.049Z,101009.56
2018-09-05T04:00:36.951Z,101009.56
2018-09-05T04:03:06.327Z,101009.51
2018-09-05T04:05:35.569Z,101007.75
2018-09-05T04:08:04.224Z,101008.23
2018-09-05T04:10:32.702Z,101010.35
2018-09-05T04:13:01.179Z,101009.56
2018-09-05T04:15:29.639Z,101013.00
2018-09-05T04:17:58.490Z,101013.55
2018-09-05T04:20:27.048Z,101010.84
2018-09-05T04:22:55.527Z,101017.38
2018-09-05T04:25:24.069Z,101010.74
2018-09-05T04:27:52.733Z,101012.06
2018-09-05T04:30:21.203Z,101011.14
2018-09-05T04:32:49.604Z,101006.31
2018-09-05T04:35:18.237Z,101008.97
2018-09-05T04:37:46.780Z,101010.74
2018-09-05T04:40:15.244Z,101010.74
2018-09-05T04:42:44.284Z,101012.06
2018-09-05T04:45:12.745Z,101013.39
2018-09-05T04:47:41.183Z,101007.30
2018-09-05T04:50:09.768Z,101010.84
2018-09-05T04:52:38.412Z,101010.89
2018-09-05T04:55:07.607Z,101011.73
2018-09-05T04:57:36.057Z,101009.56
2018-09-05T05:00:04.738Z,101014.88
2018-09-05T05:02:34.084Z,101015.80
2018-09-05T05:05:02.666Z,101011.73
2018-09-05T05:07:31.317Z,101020.63
2018-09-05T05:10:00.507Z,101020.17
2018-09-05T05:12:29.076Z,101026.33
2018-09-05T05:14:57.474Z,101028.13
2018-09-05T05:17:26.684Z,101027.65
2018-09-05T05:19:55.706Z,101032.95
2018-09-05T05:22:24.223Z,101033.83
2018-09-05T05:24:53.877Z,101036.42
2018-09-05T05:27:22.440Z,101035.49
2018-09-05T05:29:50.879Z,101037.21
2018-09-05T05:32:19.536Z,101038.05
2018-09-05T05:34:48.003Z,101030.09
2018-09-05T05:37:17.009Z,101034.47
2018-09-05T05:39:45.442Z,101037.06
2018-09-05T05:42:14.512Z,101044.97
2018-09-05T05:44:43.141Z,101046.20
2018-09-05T05:47:11.774Z,101049.73
2018-09-05T05:49:40.361Z,101044.37
2018-09-05T05:52:09.100Z,101051.84
2018-09-05T05:54:38.640Z,101045.61
2018-09-05T05:57:07.347Z,101050.86
2018-09-05T05:59:36.083Z,101051.16
2018-09-05T06:02:05.308Z,101049.77
2018-09-05T06:04:33.747Z,101054.54
2018-09-05T06:07:02.321Z,101049.63
2018-09-05T06:09:30.882Z,101056.59
2018-09-05T06:11:59.537Z,101058.70
2018-09-05T06:14:28.056Z,101054.66
2018-09-05T06:16:56.534Z,101060.70
2018-09-05T06:19:25.502Z,101060.22
2018-09-05T06:21:54.050Z,101061.39
2018-09-05T06:24:22.632Z,101056.52
2018-09-05T06:26:51.177Z,101056.91
2018-09-05T06:29:20.391Z,101059.86
2018-09-05T06:31:48.950Z,101061.67
2018-09-05T06:34:18.025Z,101063.39
2018-09-05T06:36:53.255Z,101063.72
2018-09-05T06:39:21.761Z,101065.33
2018-09-05T06:41:50.221Z,101065.56
2018-09-05T06:44:18.660Z,101065.36
2018-09-05T06:46:47.335Z,101063.48
2018-09-05T06:49:15.750Z,101061.70
2018-09-05T06:51:44.374Z,101064.30
2018-09-05T06:54:12.993Z,101062.43
2018-09-05T06:56:42.680Z,101064.94
2018-09-05T06:59:11.221Z,101066.11
2018-09-05T07:01:40.112Z,101061.67
2018-09-05T07:04:08.538Z,101064.63
2018-09-05T07:06:37.936Z,101062.39
2018-09-05T07:09:09.644Z,101066.22
2018-09-05T07:11:38.635Z,101072.70
2018-09-05T07:14:13.786Z,101069.66
2018-09-05T07:16:42.216Z,101068.66
2018-09-05T07:19:12.331Z,101074.15
2018-09-05T07:21:40.855Z,101069.41
2018-09-05T07:24:09.877Z,101073.56
2018-09-05T07:26:38.649Z,101074.13
2018-09-05T07:29:07.139Z,101073.91
2018-09-05T07:31:35.675Z,101066.61
2018-09-05T07:34:04.383Z,101069.44
2018-09-05T07:36:32.878Z,101066.05
2018-09-05T07:39:01.349Z,101069.19
2018-09-05T07:41:30.681Z,101060.77
2018-09-05T07:43:59.210Z,101073.27
2018-09-05T07:46:27.670Z,101070.71
2018-09-05T07:48:57.231Z,101065.94
2018-09-05T07:51:25.832Z,101067.20
2018-09-05T07:53:54.304Z,101072.95
2018-09-05T07:56:23.034Z,101075.70
2018-09-05T07:58:51.505Z,101075.36
2018-09-05T08:01:20.001Z,101074.67
2018-09-05T08:03:48.469Z,101078.26
2018-09-05T08:06:16.942Z,101077.14
2018-09-05T08:08:46.165Z,101076.94
2018-09-05T08:11:15.067Z,101073.72
2018-09-05T08:13:43.819Z,101078.41
2018-09-05T08:16:12.532Z,101072.91
2018-09-05T08:18:41.316Z,101072.05
2018-09-05T08:21:10.028Z,101075.55
2018-09-05T08:23:38.867Z,101077.34
2018-09-05T08:26:07.389Z,101070.71
2018-09-05T08:28:36.058Z,101074.98
2018-09-05T08:31:04.521Z,101072.27
2018-09-05T08:33:33.123Z,101070.50
2018-09-05T08:36:02.083Z,101064.42
2018-09-05T08:38:30.356Z,101060.45
2018-09-05T08:40:59.685Z,101062.28
2018-09-05T08:43:28.389Z,101059.67
2018-09-05T08:45:57.021Z,101061.13
2018-09-05T08:48:26.307Z,101058.35
2018-09-05T08:50:54.764Z,101067.04
2018-09-05T08:53:23.329Z,101065.83
2018-09-05T08:55:52.343Z,101066.59
2018-09-05T08:58:20.835Z,101070.52
2018-09-05T09:00:49.375Z,101069.22
2018-09-05T09:03:18.349Z,101072.01
2018-09-05T09:05:46.907Z,101063.94
2018-09-05T09:08:15.637Z,101061.53
2018-09-05T09:10:47.516Z,101060.95
2018-09-05T09:13:16.360Z,101069.14
2018-09-05T09:15:49.719Z,101067.55
2018-09-05T09:18:19.540Z,101064.00
2018-09-05T09:20:48.278Z,101065.26
2018-09-05T09:23:16.930Z,101065.37
2018-09-05T09:25:45.981Z,101065.74
2018-09-05T09:28:14.415Z,101062.07
2018-09-05T09:30:43.010Z,101072.85
2018-09-05T09:33:11.536Z,101066.93
2018-09-05T09:35:39.988Z,101065.33
2018-09-05T09:38:08.627Z,101066.57
2018-09-05T09:40:37.180Z,101059.25
2018-09-05T09:43:05.776Z,101060.59
2018-09-05T09:45:34.277Z,101062.80
2018-09-05T09:48:03.013Z,101059.27
2018-09-05T09:50:31.589Z,101060.69
2018-09-05T09:53:00.773Z,101059.91
2018-09-05T09:55:29.537Z,101057.16
2018-09-05T09:57:58.207Z,101053.23
2018-09-05T10:00:32.609Z,101049.86
2018-09-05T10:03:06.563Z,101051.11
2018-09-05T10:05:40.641Z,101051.48
2018-09-05T10:08:15.321Z,101052.62
2018-09-05T10:10:48.980Z,101037.25
2018-09-05T10:13:22.981Z,101042.67
2018-09-05T10:15:56.556Z,101039.50
2018-09-05T10:18:26.456Z,101045.59
2018-09-05T10:20:55.525Z,101038.91
2018-09-05T10:23:23.946Z,101036.91
2018-09-05T10:25:52.445Z,101032.05
2018-09-05T10:28:21.328Z,101032.03
2018-09-05T10:30:50.246Z,101035.23
2018-09-05T10:33:19.084Z,101035.59
2018-09-05T10:35:47.866Z,101034.58
2018-09-05T10:38:16.609Z,101029.66
2018-09-05T10:40:45.491Z,101032.03
2018-09-05T10:43:14.326Z,101028.77
2018-09-05T10:45:43.681Z,101029.34
2018-09-05T10:48:13.241Z,101026.72
2018-09-05T10:50:42.040Z,101028.16
2018-09-05T10:53:10.577Z,101031.48
2018-09-05T10:55:39.620Z,101021.74
2018-09-05T10:58:08.982Z,101020.62
2018-09-05T11:00:37.377Z,101017.46
2018-09-05T11:03:06.445Z,101007.33
2018-09-05T11:05:35.081Z,101013.41
2018-09-05T11:08:03.541Z,101010.60
2018-09-05T11:10:32.228Z,101008.72
2018-09-05T11:13:01.127Z,101002.94
2018-09-05T11:15:29.771Z,101009.22
2018-09-05T11:17:59.319Z,101001.28
2018-09-05T11:20:27.860Z,100994.13
2018-09-05T11:22:56.464Z,100998.70
2018-09-05T11:25:24.919Z,101002.21
2018-09-05T11:27:53.624Z,100997.30
2018-09-05T11:30:22.340Z,100991.42
2018-09-05T11:32:51.702Z,100987.38
2018-09-05T11:35:20.973Z,100982.36
2018-09-05T11:37:49.467Z,100988.52
2018-09-05T11:40:17.947Z,100988.28
2018-09-05T11:42:46.786Z,100987.05
2018-09-05T11:45:16.056Z,100985.56
2018-09-05T11:47:44.633Z,100985.70
2018-09-05T11:50:13.182Z,100984.23
2018-09-05T11:52:41.787Z,100978.28
2018-09-05T11:55:10.428Z,100980.51
2018-09-05T11:57:38.961Z,100978.48
2018-09-05T12:00:07.829Z,100975.80
2018-09-05T12:02:37.007Z,100975.20
2018-09-05T12:05:05.745Z,100974.77
2018-09-05T12:07:34.119Z,100974.44
2018-09-05T12:10:02.595Z,100970.45
2018-09-05T12:12:31.323Z,100969.13
2018-09-05T12:14:59.954Z,100969.02
2018-09-05T12:17:29.158Z,100966.69
2018-09-05T12:19:57.716Z,100968.66
2018-09-05T12:22:26.238Z,100963.18
2018-09-05T12:24:54.900Z,100959.48
2018-09-05T12:27:23.674Z,100955.66
2018-09-05T12:29:52.770Z,100957.73
2018-09-05T12:32:21.241Z,100954.05
2018-09-05T12:34:49.797Z,100950.28
2018-09-05T12:37:18.376Z,100949.37
2018-09-05T12:39:46.938Z,100946.02
2018-09-05T12:42:15.579Z,100940.89
2018-09-05T12:44:44.833Z,100947.84
2018-09-05T12:47:13.626Z,100940.94
2018-09-05T12:49:42.220Z,100926.66
2018-09-05T12:52:11.936Z,100927.27
2018-09-05T12:54:40.620Z,100922.59
2018-09-05T12:57:15.843Z,100924.83
2018-09-05T12:59:44.549Z,100925.52
2018-09-05T13:02:13.870Z,100913.41
2018-09-05T13:04:42.320Z,100919.09
2018-09-05T13:07:10.945Z,100918.53
2018-09-05T13:09:39.552Z,100914.77
2018-09-05T13:12:08.839Z,100913.98
2018-09-05T13:14:37.642Z,100911.59
2018-09-05T13:17:06.214Z,100907.61
2018-09-05T13:19:34.942Z,100906.58
2018-09-05T13:22:03.383Z,100908.81
2018-09-05T13:24:31.980Z,100897.38
2018-09-05T13:27:00.573Z,100903.28
2018-09-05T13:29:29.422Z,100899.34
2018-09-05T13:31:57.934Z,100898.48
2018-09-05T13:34:27.421Z,100900.28
2018-09-05T13:36:56.741Z,100893.63
2018-09-05T13:39:25.205Z,100886.21
2018-09-05T13:41:53.988Z,100880.11
2018-09-05T13:44:23.361Z,100884.47
2018-09-05T13:46:51.975Z,100879.00
2018-09-05T13:49:20.985Z,100877.53
2018-09-05T13:51:54.775Z,100874.88
2018-09-05T13:54:23.804Z,100872.81
2018-09-05T13:56:52.386Z,100873.12
2018-09-05T13:59:21.001Z,100870.08
2018-09-05T14:01:49.680Z,100869.78
2018-09-05T14:04:18.570Z,100865.17
2018-09-05T14:06:47.041Z,100858.44
2018-09-05T14:09:15.929Z,100865.92
2018-09-05T14:11:44.435Z,100859.82
2018-09-05T14:14:13.113Z,100858.39
2018-09-05T14:16:41.825Z,100855.86
2018-09-05T14:19:10.292Z,100858.41
2018-09-05T14:21:38.834Z,100855.36
2018-09-05T14:24:08.688Z,100852.15
2018-09-05T14:26:38.195Z,100850.24
2018-09-05T14:29:06.933Z,100843.46
2018-09-05T14:31:36.013Z,100845.96
2018-09-05T14:34:04.797Z,100852.13
2018-09-05T14:36:36.840Z,100853.83
2018-09-05T14:39:08.524Z,100853.95
2018-09-05T14:41:37.054Z,100855.21
2018-09-05T14:44:05.796Z,100852.59
2018-09-05T14:46:34.616Z,100850.52
2018-09-05T14:49:03.784Z,100855.25
2018-09-05T14:51:32.544Z,100847.70
2018-09-05T14:54:01.426Z,100849.69
2018-09-05T14:56:29.993Z,100847.78
2018-09-05T14:59:05.784Z,100841.59
2018-09-05T15:01:34.502Z,100837.78
2018-09-05T15:04:03.780Z,100834.21
2018-09-05T15:06:32.465Z,100838.89
2018-09-05T15:09:01.018Z,100837.47
2018-09-05T15:11:29.698Z,100839.52
2018-09-05T15:13:58.352Z,100832.80
2018-09-05T15:16:26.933Z,100825.98
2018-09-05T15:18:55.513Z,100821.44
2018-09-05T15:21:24.287Z,100822.83
2018-09-05T15:23:53.582Z,100819.62
2018-09-05T15:26:22.142Z,100815.22
2018-09-05T15:28:50.822Z,100814.45
2018-09-05T15:31:19.724Z,100811.14
2018-09-05T15:33:48.266Z,100810.81
2018-09-05T15:36:16.793Z,100804.80
2018-09-05T15:38:45.952Z,100802.31
2018-09-05T15:41:14.579Z,100801.80
2018-09-05T15:43:43.057Z,100801.03
2018-09-05T15:46:11.572Z,100797.98
2018-09-05T15:48:40.164Z,100794.70
2018-09-05T15:51:08.801Z,100795.53
2018-09-05T15:53:37.414Z,100796.32
2018-09-05T15:56:06.313Z,100793.03
2018-09-05T15:58:35.580Z,100792.55
2018-09-05T16:01:04.338Z,100793.67
2018-09-05T16:03:32.818Z,100795.66
2018-09-05T16:06:01.409Z,100790.27
2018-09-05T16:08:30.176Z,100795.09
2018-09-05T16:10:59.465Z,100794.35
2018-09-05T16:13:28.051Z,100793.59
2018-09-05T16:15:57.509Z,100793.36
2018-09-05T16:18:27.029Z,100797.72
2018-09-05T16:20:56.563Z,100797.06
2018-09-05T16:23:25.074Z,100795.09
2018-09-05T16:25:53.663Z,100792.16
2018-09-05T16:28:22.338Z,100787.17
2018-09-05T16:30:50.909Z,100782.09
2018-09-05T16:33:19.687Z,100783.17
2018-09-05T16:35:49.050Z,100785.06
2018-09-05T16:38:17.495Z,100777.11
2018-09-05T16:40:46.125Z,100778.58
2018-09-05T16:43:15.281Z,100777.86
2018-09-05T16:45:52.434Z,100775.05
2018-09-05T16:48:21.407Z,100778.55
2018-09-05T16:50:50.853Z,100776.47
2018-09-05T16:53:19.605Z,100779.24
2018-09-05T16:55:48.627Z,100777.75
2018-09-05T16:58:18.522Z,100772.39
2018-09-05T17:00:50.185Z,100776.21
2018-09-05T17:03:18.649Z,100777.06
2018-09-05T17:05:48.753Z,100777.22
2018-09-05T17:08:17.269Z,100775.14
2018-09-05T17:10:45.870Z,100782.68
2018-09-05T17:13:14.472Z,100777.55
2018-09-05T17:15:43.080Z,100777.05
2018-09-05T17:18:15.155Z,100784.53
2018-09-05T17:20:49.862Z,100780.98
2018-09-05T17:23:19.066Z,100788.59
2018-09-05T17:25:47.620Z,100788.45
2018-09-05T17:28:16.106Z,100799.20
2018-09-05T17:30:44.703Z,100804.47
2018-09-05T17:33:14.596Z,100801.89
2018-09-05T17:35:43.532Z,100810.67
2018-09-05T17:38:12.270Z,100807.63
2018-09-05T17:40:41.274Z,100801.80
2018-09-05T17:43:09.872Z,100802.63
2018-09-05T17:45:38.515Z,100797.84
2018-09-05T17:48:07.430Z,100800.52
2018-09-05T17:50:35.894Z,100803.23
2018-09-05T17:53:04.409Z,100792.86
2018-09-05T17:55:33.753Z,100794.92
2018-09-05T17:58:02.614Z,100796.63
2018-09-05T18:00:31.752Z,100792.09
2018-09-05T18:03:00.611Z,100785.41
2018-09-05T18:05:29.199Z,100788.98
2018-09-05T18:08:00.497Z,100783.23
2018-09-05T18:10:29.026Z,100779.80
2018-09-05T18:12:57.827Z,100774.69
2018-09-05T18:15:26.341Z,100772.87
2018-09-05T18:17:55.501Z,100776.13
2018-09-05T18:20:24.214Z,100775.03
2018-09-05T18:22:54.680Z,100776.01
2018-09-05T18:25:23.304Z,100775.89
2018-09-05T18:27:52.918Z,100775.98
2018-09-05T18:30:22.006Z,100781.59
2018-09-05T18:32:50.832Z,100784.02
2018-09-05T18:35:19.667Z,100782.55
2018-09-05T18:37:48.733Z,100792.17
2018-09-05T18:40:17.695Z,100786.28
2018-09-05T18:42:46.616Z,100782.61
2018-09-05T18:45:20.278Z,100783.45
2018-09-05T18:47:49.072Z,100788.62
2018-09-05T18:50:17.883Z,100788.02
2018-09-05T18:52:48.525Z,100796.39
2018-09-05T18:55:17.154Z,100790.41
2018-09-05T18:57:46.145Z,100784.55
2018-09-05T19:00:14.903Z,100790.71
2018-09-05T19:02:44.602Z,100792.39
2018-09-05T19:05:13.444Z,100791.28
2018-09-05T19:07:42.355Z,100788.94
2018-09-05T19:10:10.906Z,100795.27
2018-09-05T19:12:39.855Z,100788.30
2018-09-05T19:15:08.487Z,100795.00
2018-09-05T19:17:37.532Z,100784.89
2018-09-05T19:20:07.147Z,100781.47
2018-09-05T19:22:36.017Z,100783.41
2018-09-05T19:25:04.780Z,100788.12
2018-09-05T19:27:33.559Z,100789.70
2018-09-05T19:30:02.626Z,100792.98
2018-09-05T19:32:31.202Z,100793.08
2018-09-05T19:35:01.122Z,100791.00
2018-09-05T19:37:30.116Z,100796.45
2018-09-05T19:39:58.881Z,100794.01
2018-09-05T19:42:27.605Z,100793.73
2018-09-05T19:44:56.574Z,100799.28
2018-09-05T19:47:25.344Z,100803.63
2018-09-05T19:49:54.375Z,100805.56
2018-09-05T19:52:23.057Z,100810.64
2018-09-05T19:54:51.648Z,100801.50
2018-09-05T19:57:21.047Z,100801.13
2018-09-05T19:59:53.103Z,100800.49
2018-09-05T20:02:21.923Z,100792.19
2018-09-05T20:04:51.481Z,100786.70
2018-09-05T20:07:21.539Z,100788.63
2018-09-05T20:09:50.101Z,100794.67
2018-09-05T20:12:19.736Z,100790.10
2018-09-05T20:14:48.865Z,100789.70
2018-09-05T20:17:18.351Z,100788.95
2018-09-05T20:19:47.022Z,100791.11
2018-09-05T20:22:15.852Z,100791.80
2018-09-05T20:24:44.815Z,100799.25
2018-09-05T20:27:14.913Z,100802.23
2018-09-05T20:29:43.765Z,100799.16
2018-09-05T20:32:12.897Z,100802.61
2018-09-05T20:34:41.700Z,100801.73
2018-09-05T20:37:10.670Z,100799.56
2018-09-05T20:39:40.298Z,100802.23
2018-09-05T20:42:08.869Z,100801.33
2018-09-05T20:44:38.501Z,100805.78
2018-09-05T20:47:07.596Z,100801.59
2018-09-05T20:49:36.382Z,100800.25
2018-09-05T20:52:05.440Z,100793.14
2018-09-05T20:54:33.983Z,100797.80
2018-09-05T20:57:03.106Z,100794.47
2018-09-05T20:59:31.697Z,100794.16
2018-09-05T21:02:01.115Z,100791.83
2018-09-05T21:04:30.964Z,100780.80
2018-09-05T21:07:00.182Z,100774.39
2018-09-05T21:09:29.081Z,100777.74
2018-09-05T21:11:57.641Z,100780.59
2018-09-05T21:14:26.919Z,100773.36
2018-09-05T21:16:56.500Z,100771.38
2018-09-05T21:19:30.378Z,100781.20
2018-09-05T21:21:59.372Z,100775.88
2018-09-05T21:24:28.169Z,100778.31
2018-09-05T21:26:57.196Z,100779.86
2018-09-05T21:29:25.793Z,100778.61
2018-09-05T21:31:54.636Z,100773.11
2018-09-05T21:34:23.183Z,100781.88
2018-09-05T21:36:51.796Z,100779.21
2018-09-05T21:39:20.433Z,100779.63
2018-09-05T21:41:49.916Z,100777.38
2018-09-05T21:44:19.230Z,100780.72
2018-09-05T21:46:48.048Z,100783.59
2018-09-05T21:49:16.580Z,100780.63
2018-09-05T21:51:45.239Z,100788.27
2018-09-05T21:54:13.740Z,100792.84
2018-09-05T21:56:42.267Z,100799.31
2018-09-05T21:59:11.903Z,100803.31
2018-09-05T22:01:40.481Z,100803.59
2018-09-05T22:04:08.941Z,100809.50
2018-09-05T22:06:37.565Z,100821.42
2018-09-05T22:09:09.048Z,100813.67
2018-09-05T22:11:37.673Z,100814.25
2018-09-05T22:14:06.319Z,100816.44
2018-09-05T22:16:35.486Z,100817.02
2018-09-05T22:19:04.069Z,100814.16
2018-09-05T22:21:32.729Z,100819.45
2018-09-05T22:24:01.434Z,100825.55
2018-09-05T22:26:31.022Z,100818.70
2018-09-05T22:28:59.577Z,100825.45
2018-09-05T22:31:28.696Z,100817.02
2018-09-05T22:33:57.184Z,100826.38
2018-09-05T22:36:25.682Z,100826.98
2018-09-05T22:38:54.449Z,100819.28
2018-09-05T22:41:23.266Z,100829.27
2018-09-05T22:44:02.769Z,100820.27
2018-09-05T22:46:42.387Z,100823.10
2018-09-05T22:51:34.206Z,100821.52
2018-09-05T22:56:24.730Z,100824.97
2018-09-05T23:00:00.738Z,100832.19
2018-09-05T23:02:47.231Z,100851.86
2018-09-05T23:05:57.233Z,100858.13
2018-09-05T23:08:37.242Z,100856.91
2018-09-05T23:11:17.454Z,100863.47
2018-09-05T23:14:33.391Z,100866.70
2018-09-05T23:19:26.282Z,100855.44
2018-09-05T23:21:55.166Z,100851.12
2018-09-05T23:24:23.657Z,100851.12
2018-09-05T23:26:52.289Z,100836.55
2018-09-05T23:29:20.975Z,100829.77
2018-09-05T23:31:49.636Z,100823.87
2018-09-05T23:34:18.066Z,100814.94
2018-09-05T23:36:46.621Z,100805.90
2018-09-05T23:39:15.165Z,100798.67
2018-09-05T23:41:43.758Z,100800.17
2018-09-05T23:44:12.342Z,100801.85
2018-09-05T23:46:41.589Z,100803.81
2018-09-05T23:49:10.529Z,100797.86
2018-09-05T23:51:39.076Z,100798.42
2018-09-05T23:54:08.732Z,100792.74
2018-09-05T23:56:37.875Z,100783.56
2018-09-05T23:59:07.555Z,100778.09
